N G Explorer — C6WR2 — position and weather

sailwx.info

Track history (hours):
 
Tides and Currents Weather Stations Pressure Air Temp Water Temp Dewpoint Dewpoint Depression Visibility Wind Speed Wind Dir Waves Ship Positions

N G Explorer

Last reported at 2017-Mar-24 19:06 UTC. Time now 2017-Mar-24 19:54 UTC.
Position S 54°55' W 067°17'.

Length 112 m; draft 4.8 m.

Type: . MMSI: 309336000.

Date/timePositionNaut miles runAvg speedWind from/ knotsBaromVisibWave heightAir tempDewpointWater temp
2017-Mar-24 19:06S 54°55' W 067°17'915.9
2017-Mar-24 18:33S 54°55' W 067°32'1615.7
2017-Mar-24 17:33S 54°52' W 067°59'1111.4
2017-Mar-24 16:33S 54°48' W 068°17'0 0.0
2017-Mar-24 15:33S 54°48' W 068°17'0 0.0
2017-Mar-24 14:33S 54°48' W 068°17'0 0.0
2017-Mar-24 13:30S 54°48' W 068°17'0 0.4
2017-Mar-24 12:32S 54°49' W 068°18'0 0.0
2017-Mar-24 11:32S 54°49' W 068°18'0 0.2
2017-Mar-24 09:34S 54°49' W 068°17'9 9.1
2017-Mar-24 08:33S 54°52' W 068°02'1010.4
2017-Mar-24 07:33S 54°54' W 067°45'5 4.5
2017-Mar-24 06:21S 54°56' W 067°36'0 0.1
2017-Mar-24 05:30S 54°55' W 067°36'0 0.0
2017-Mar-24 04:27S 54°55' W 067°36'0 0.0
2017-Mar-24 02:24S 54°56' W 067°36'0 0.0
2017-Mar-24 01:33S 54°55' W 067°36'0 0.0
2017-Mar-24 00:12S 54°55' W 067°36'0 0.0
2017-Mar-23 23:33S 54°55' W 067°36'0 0.0
2017-Mar-23 22:33S 54°55' W 067°36'0 0.1
2017-Mar-23 21:33S 54°55' W 067°36'4 4.4
2017-Mar-23 20:34S 54°55' W 067°28'  
Track history (hours):
 
Tides and Currents Weather Stations Pressure Air Temp Water Temp Dewpoint Dewpoint Depression Visibility Wind Speed Wind Dir Waves Ship Positions

N G Explorer

Last reported at 2017-Mar-24 19:06 UTC. Time now 2017-Mar-24 19:54 UTC.
Position S 54°55' W 067°17'.

Length 112 m; draft 4.8 m.

Type: . MMSI: 309336000.

Date/timePositionNaut miles runAvg speedWind from/ knotsBaromVisibWave heightAir tempDewpointWater temp
2017-Mar-24 19:06S 54°55' W 067°17'915.9
2017-Mar-24 18:33S 54°55' W 067°32'1615.7
2017-Mar-24 17:33S 54°52' W 067°59'1111.4
2017-Mar-24 16:33S 54°48' W 068°17'0 0.0
2017-Mar-24 15:33S 54°48' W 068°17'0 0.0
2017-Mar-24 14:33S 54°48' W 068°17'0 0.0
2017-Mar-24 13:30S 54°48' W 068°17'0 0.4
2017-Mar-24 12:32S 54°49' W 068°18'0 0.0
2017-Mar-24 11:32S 54°49' W 068°18'0 0.2
2017-Mar-24 09:34S 54°49' W 068°17'9 9.1
2017-Mar-24 08:33S 54°52' W 068°02'1010.4
2017-Mar-24 07:33S 54°54' W 067°45'5 4.5
2017-Mar-24 06:21S 54°56' W 067°36'0 0.1
2017-Mar-24 05:30S 54°55' W 067°36'0 0.0
2017-Mar-24 04:27S 54°55' W 067°36'0 0.0
2017-Mar-24 02:24S 54°56' W 067°36'0 0.0
2017-Mar-24 01:33S 54°55' W 067°36'0 0.0
2017-Mar-24 00:12S 54°55' W 067°36'0 0.0
2017-Mar-23 23:33S 54°55' W 067°36'0 0.0
2017-Mar-23 22:33S 54°55' W 067°36'0 0.1
2017-Mar-23 21:33S 54°55' W 067°36'4 4.4
2017-Mar-23 20:34S 54°55' W 067°28'  

Dump ship's entire track history